sensor_id;sensor_type;location;lat;lon;timestamp;temperature;humidity
1568;DHT22;777;47.156;8.326;2023-02-18T00:00:58;6.50;99.90
1568;DHT22;777;47.156;8.326;2023-02-18T00:03:26;6.60;99.90
1568;DHT22;777;47.156;8.326;2023-02-18T00:05:54;6.60;99.90
1568;DHT22;777;47.156;8.326;2023-02-18T00:08:21;6.60;99.90
1568;DHT22;777;47.156;8.326;2023-02-18T00:10:49;6.60;99.90
1568;DHT22;777;47.156;8.326;2023-02-18T00:13:16;6.70;99.90
1568;DHT22;777;47.156;8.326;2023-02-18T00:15:43;6.80;99.90
1568;DHT22;777;47.156;8.326;2023-02-18T00:18:10;6.90;99.90
1568;DHT22;777;47.156;8.326;2023-02-18T00:20:37;7.00;99.90
1568;DHT22;777;47.156;8.326;2023-02-18T00:23:06;6.90;99.90
1568;DHT22;777;47.156;8.326;2023-02-18T00:25:33;6.90;99.90
1568;DHT22;777;47.156;8.326;2023-02-18T00:28:00;6.80;99.90
1568;DHT22;777;47.156;8.326;2023-02-18T00:30:27;6.80;99.90
1568;DHT22;777;47.156;8.326;2023-02-18T00:32:54;6.90;99.90
1568;DHT22;777;47.156;8.326;2023-02-18T00:35:21;6.90;99.90
1568;DHT22;777;47.156;8.326;2023-02-18T00:37:50;6.90;99.90
1568;DHT22;777;47.156;8.326;2023-02-18T00:40:19;7.00;99.90
1568;DHT22;777;47.156;8.326;2023-02-18T00:42:46;7.10;99.90
1568;DHT22;777;47.156;8.326;2023-02-18T00:45:13;7.10;99.90
1568;DHT22;777;47.156;8.326;2023-02-18T00:47:40;7.20;99.90
1568;DHT22;777;47.156;8.326;2023-02-18T00:50:08;7.20;99.90
1568;DHT22;777;47.156;8.326;2023-02-18T00:52:36;7.20;99.90
1568;DHT22;777;47.156;8.326;2023-02-18T00:55:03;7.20;99.90
1568;DHT22;777;47.156;8.326;2023-02-18T00:57:33;7.20;99.90
1568;DHT22;777;47.156;8.326;2023-02-18T01:00:00;7.20;99.90
1568;DHT22;777;47.156;8.326;2023-02-18T01:02:27;7.20;99.90
1568;DHT22;777;47.156;8.326;2023-02-18T01:04:54;7.20;99.90
1568;DHT22;777;47.156;8.326;2023-02-18T01:07:20;7.10;99.90
1568;DHT22;777;47.156;8.326;2023-02-18T01:09:47;7.10;99.90
1568;DHT22;777;47.156;8.326;2023-02-18T01:12:15;7.00;99.90
1568;DHT22;777;47.156;8.326;2023-02-18T01:14:43;7.00;99.90
1568;DHT22;777;47.156;8.326;2023-02-18T01:17:10;7.10;99.90
1568;DHT22;777;47.156;8.326;2023-02-18T01:19:39;7.10;99.90
1568;DHT22;777;47.156;8.326;2023-02-18T01:22:06;7.10;99.90
1568;DHT22;777;47.156;8.326;2023-02-18T01:24:33;7.20;99.90
1568;DHT22;777;47.156;8.326;2023-02-18T01:27:00;7.30;99.90
1568;DHT22;777;47.156;8.326;2023-02-18T01:29:27;7.40;99.90
1568;DHT22;777;47.156;8.326;2023-02-18T01:31:56;7.40;99.90
1568;DHT22;777;47.156;8.326;2023-02-18T01:34:23;7.50;99.90
1568;DHT22;777;47.156;8.326;2023-02-18T01:36:50;7.50;99.90
1568;DHT22;777;47.156;8.326;2023-02-18T01:39:17;7.50;99.90
1568;DHT22;777;47.156;8.326;2023-02-18T01:41:44;7.30;99.90
1568;DHT22;777;47.156;8.326;2023-02-18T01:44:16;7.30;99.90
1568;DHT22;777;47.156;8.326;2023-02-18T01:46:44;7.30;99.90
1568;DHT22;777;47.156;8.326;2023-02-18T01:49:15;7.40;99.90
1568;DHT22;777;47.156;8.326;2023-02-18T01:51:45;7.40;99.90
1568;DHT22;777;47.156;8.326;2023-02-18T01:54:17;7.50;99.90
1568;DHT22;777;47.156;8.326;2023-02-18T01:56:48;7.50;99.90
1568;DHT22;777;47.156;8.326;2023-02-18T01:59:19;7.50;99.90
1568;DHT22;777;47.156;8.326;2023-02-18T02:01:47;7.50;99.90
1568;DHT22;777;47.156;8.326;2023-02-18T02:04:16;7.40;99.90
1568;DHT22;777;47.156;8.326;2023-02-18T02:06:43;7.30;99.90
1568;DHT22;777;47.156;8.326;2023-02-18T02:09:12;7.10;99.90
1568;DHT22;777;47.156;8.326;2023-02-18T02:12:08;7.00;99.90
1568;DHT22;777;47.156;8.326;2023-02-18T02:14:59;6.90;99.90
1568;DHT22;777;47.156;8.326;2023-02-18T02:17:35;7.00;99.90
1568;DHT22;777;47.156;8.326;2023-02-18T02:20:44;6.90;99.90
1568;DHT22;777;47.156;8.326;2023-02-18T02:23:57;6.90;99.90
1568;DHT22;777;47.156;8.326;2023-02-18T02:30:19;7.10;99.90
1568;DHT22;777;47.156;8.326;2023-02-18T02:33:23;7.00;99.90
1568;DHT22;777;47.156;8.326;2023-02-18T02:35:59;7.10;99.90
1568;DHT22;777;47.156;8.326;2023-02-18T02:38:31;7.10;99.90
1568;DHT22;777;47.156;8.326;2023-02-18T02:41:09;7.10;99.90
1568;DHT22;777;47.156;8.326;2023-02-18T02:43:46;7.20;99.90
1568;DHT22;777;47.156;8.326;2023-02-18T02:46:18;7.40;99.90
1568;DHT22;777;47.156;8.326;2023-02-18T02:48:56;7.40;99.90
1568;DHT22;777;47.156;8.326;2023-02-18T02:51:28;7.50;99.90
1568;DHT22;777;47.156;8.326;2023-02-18T02:54:09;7.50;99.90
1568;DHT22;777;47.156;8.326;2023-02-18T02:56:37;7.60;99.90
1568;DHT22;777;47.156;8.326;2023-02-18T02:59:09;7.60;99.90
1568;DHT22;777;47.156;8.326;2023-02-18T03:01:50;7.60;99.90
1568;DHT22;777;47.156;8.326;2023-02-18T03:04:34;7.60;99.90
1568;DHT22;777;47.156;8.326;2023-02-18T03:07:21;7.60;99.90
1568;DHT22;777;47.156;8.326;2023-02-18T03:10:09;7.60;99.90
1568;DHT22;777;47.156;8.326;2023-02-18T03:12:46;7.60;99.90
1568;DHT22;777;47.156;8.326;2023-02-18T03:15:21;7.50;99.90
1568;DHT22;777;47.156;8.326;2023-02-18T03:17:56;7.50;99.90
1568;DHT22;777;47.156;8.326;2023-02-18T03:20:28;7.50;99.90
1568;DHT22;777;47.156;8.326;2023-02-18T03:23:08;7.60;99.90
1568;DHT22;777;47.156;8.326;2023-02-18T03:25:38;7.60;99.90
1568;DHT22;777;47.156;8.326;2023-02-18T03:28:11;7.60;99.90
1568;DHT22;777;47.156;8.326;2023-02-18T03:30:42;7.50;99.90
1568;DHT22;777;47.156;8.326;2023-02-18T03:33:13;7.40;99.90
1568;DHT22;777;47.156;8.326;2023-02-18T03:35:42;7.30;99.90
1568;DHT22;777;47.156;8.326;2023-02-18T03:38:15;7.30;99.90
1568;DHT22;777;47.156;8.326;2023-02-18T03:40:44;7.30;99.90
1568;DHT22;777;47.156;8.326;2023-02-18T03:43:12;7.30;99.90
1568;DHT22;777;47.156;8.326;2023-02-18T03:45:38;7.30;99.90
1568;DHT22;777;47.156;8.326;2023-02-18T03:48:06;7.40;99.90
1568;DHT22;777;47.156;8.326;2023-02-18T03:50:33;7.40;99.90
1568;DHT22;777;47.156;8.326;2023-02-18T03:53:00;7.40;99.90
1568;DHT22;777;47.156;8.326;2023-02-18T03:55:28;7.40;99.90
1568;DHT22;777;47.156;8.326;2023-02-18T03:57:55;7.50;99.90
1568;DHT22;777;47.156;8.326;2023-02-18T04:00:22;7.50;99.90
1568;DHT22;777;47.156;8.326;2023-02-18T04:02:49;7.60;99.90
1568;DHT22;777;47.156;8.326;2023-02-18T04:05:16;7.60;99.90
1568;DHT22;777;47.156;8.326;2023-02-18T04:07:43;7.60;99.90
1568;DHT22;777;47.156;8.326;2023-02-18T04:10:10;7.70;99.90
1568;DHT22;777;47.156;8.326;2023-02-18T04:12:38;7.60;99.90
1568;DHT22;777;47.156;8.326;2023-02-18T04:15:06;7.60;99.90
1568;DHT22;777;47.156;8.326;2023-02-18T04:17:33;7.50;99.90
1568;DHT22;777;47.156;8.326;2023-02-18T04:20:00;7.50;99.90
1568;DHT22;777;47.156;8.326;2023-02-18T04:22:29;7.50;99.90
1568;DHT22;777;47.156;8.326;2023-02-18T04:24:56;7.50;99.90
1568;DHT22;777;47.156;8.326;2023-02-18T04:27:23;7.50;99.90
1568;DHT22;777;47.156;8.326;2023-02-18T04:29:52;7.40;99.90
1568;DHT22;777;47.156;8.326;2023-02-18T04:32:19;7.40;99.90
1568;DHT22;777;47.156;8.326;2023-02-18T04:34:46;7.40;99.90
1568;DHT22;777;47.156;8.326;2023-02-18T04:37:13;7.40;99.90
1568;DHT22;777;47.156;8.326;2023-02-18T04:39:40;7.30;99.90
1568;DHT22;777;47.156;8.326;2023-02-18T04:42:07;7.30;99.90
1568;DHT22;777;47.156;8.326;2023-02-18T04:44:35;7.20;99.90
1568;DHT22;777;47.156;8.326;2023-02-18T04:47:04;7.10;99.90
1568;DHT22;777;47.156;8.326;2023-02-18T04:49:31;7.10;99.90
1568;DHT22;777;47.156;8.326;2023-02-18T04:51:58;7.00;99.90
1568;DHT22;777;47.156;8.326;2023-02-18T04:54:25;7.00;99.90
1568;DHT22;777;47.156;8.326;2023-02-18T04:56:52;6.90;99.90
1568;DHT22;777;47.156;8.326;2023-02-18T04:59:19;6.70;99.90
1568;DHT22;777;47.156;8.326;2023-02-18T05:01:46;6.60;99.90
1568;DHT22;777;47.156;8.326;2023-02-18T05:04:15;6.50;99.90
1568;DHT22;777;47.156;8.326;2023-02-18T05:06:42;6.40;99.90
1568;DHT22;777;47.156;8.326;2023-02-18T05:09:10;6.30;99.90
1568;DHT22;777;47.156;8.326;2023-02-18T05:11:37;6.20;99.90
1568;DHT22;777;47.156;8.326;2023-02-18T05:14:04;6.20;99.90
1568;DHT22;777;47.156;8.326;2023-02-18T05:16:31;6.00;99.90
1568;DHT22;777;47.156;8.326;2023-02-18T05:18:58;5.80;99.90
1568;DHT22;777;47.156;8.326;2023-02-18T05:21:26;5.70;99.90
1568;DHT22;777;47.156;8.326;2023-02-18T05:23:53;5.60;99.90
1568;DHT22;777;47.156;8.326;2023-02-18T05:26:20;5.60;99.90
1568;DHT22;777;47.156;8.326;2023-02-18T05:28:48;5.50;99.90
1568;DHT22;777;47.156;8.326;2023-02-18T05:31:14;5.40;99.90
1568;DHT22;777;47.156;8.326;2023-02-18T05:33:41;5.30;99.90
1568;DHT22;777;47.156;8.326;2023-02-18T05:36:08;5.30;99.90
1568;DHT22;777;47.156;8.326;2023-02-18T05:38:37;5.40;99.90
1568;DHT22;777;47.156;8.326;2023-02-18T05:41:04;5.40;99.90
1568;DHT22;777;47.156;8.326;2023-02-18T05:43:31;5.30;99.90
1568;DHT22;777;47.156;8.326;2023-02-18T05:46:19;5.30;99.90
1568;DHT22;777;47.156;8.326;2023-02-18T05:48:46;5.20;99.90
1568;DHT22;777;47.156;8.326;2023-02-18T05:51:13;5.10;99.90
1568;DHT22;777;47.156;8.326;2023-02-18T05:53:41;5.10;99.90
1568;DHT22;777;47.156;8.326;2023-02-18T05:56:09;5.10;99.90
1568;DHT22;777;47.156;8.326;2023-02-18T05:58:35;5.00;99.90
1568;DHT22;777;47.156;8.326;2023-02-18T06:01:03;5.00;99.90
1568;DHT22;777;47.156;8.326;2023-02-18T06:03:32;5.10;99.90
1568;DHT22;777;47.156;8.326;2023-02-18T06:05:59;5.10;99.90
1568;DHT22;777;47.156;8.326;2023-02-18T06:08:26;5.10;99.90
1568;DHT22;777;47.156;8.326;2023-02-18T06:10:54;5.00;99.90
1568;DHT22;777;47.156;8.326;2023-02-18T06:13:21;5.00;99.90
1568;DHT22;777;47.156;8.326;2023-02-18T06:15:49;4.90;99.90
1568;DHT22;777;47.156;8.326;2023-02-18T06:18:16;4.90;99.90
1568;DHT22;777;47.156;8.326;2023-02-18T06:20:43;4.90;99.90
1568;DHT22;777;47.156;8.326;2023-02-18T06:23:12;4.80;99.90
1568;DHT22;777;47.156;8.326;2023-02-18T06:25:39;5.00;99.90
1568;DHT22;777;47.156;8.326;2023-02-18T06:28:07;5.00;99.90
1568;DHT22;777;47.156;8.326;2023-02-18T06:30:34;4.80;99.90
1568;DHT22;777;47.156;8.326;2023-02-18T06:33:01;4.70;99.90
1568;DHT22;777;47.156;8.326;2023-02-18T06:35:29;4.50;99.90
1568;DHT22;777;47.156;8.326;2023-02-18T06:37:56;4.40;99.90
1568;DHT22;777;47.156;8.326;2023-02-18T06:40:23;4.50;99.90
1568;DHT22;777;47.156;8.326;2023-02-18T06:42:50;4.50;99.90
1568;DHT22;777;47.156;8.326;2023-02-18T06:45:19;4.50;99.90
1568;DHT22;777;47.156;8.326;2023-02-18T06:47:46;4.50;99.90
1568;DHT22;777;47.156;8.326;2023-02-18T06:50:13;4.70;99.90
1568;DHT22;777;47.156;8.326;2023-02-18T06:52:39;4.80;99.90
1568;DHT22;777;47.156;8.326;2023-02-18T06:55:07;4.80;99.90
1568;DHT22;777;47.156;8.326;2023-02-18T06:57:35;4.90;99.90
1568;DHT22;777;47.156;8.326;2023-02-18T07:00:02;5.00;99.90
1568;DHT22;777;47.156;8.326;2023-02-18T07:02:31;4.80;99.90
1568;DHT22;777;47.156;8.326;2023-02-18T07:04:58;4.80;99.90
1568;DHT22;777;47.156;8.326;2023-02-18T07:07:25;4.80;99.90
1568;DHT22;777;47.156;8.326;2023-02-18T07:09:52;4.90;99.90
1568;DHT22;777;47.156;8.326;2023-02-18T07:12:19;5.10;99.90
1568;DHT22;777;47.156;8.326;2023-02-18T07:14:46;5.20;99.90
1568;DHT22;777;47.156;8.326;2023-02-18T07:17:12;5.30;99.90
1568;DHT22;777;47.156;8.326;2023-02-18T07:19:41;5.50;99.90
1568;DHT22;777;47.156;8.326;2023-02-18T07:22:08;5.90;99.90
1568;DHT22;777;47.156;8.326;2023-02-18T07:24:34;6.40;99.90
1568;DHT22;777;47.156;8.326;2023-02-18T07:27:02;7.00;99.90
1568;DHT22;777;47.156;8.326;2023-02-18T07:29:29;7.60;99.90
1568;DHT22;777;47.156;8.326;2023-02-18T07:31:55;8.40;99.90
1568;DHT22;777;47.156;8.326;2023-02-18T07:34:23;9.10;99.90
1568;DHT22;777;47.156;8.326;2023-02-18T07:36:51;9.80;99.90
1568;DHT22;777;47.156;8.326;2023-02-18T07:39:18;10.50;99.90
1568;DHT22;777;47.156;8.326;2023-02-18T07:41:45;10.70;99.90
1568;DHT22;777;47.156;8.326;2023-02-18T07:44:14;11.20;99.90
1568;DHT22;777;47.156;8.326;2023-02-18T07:46:41;11.80;99.90
1568;DHT22;777;47.156;8.326;2023-02-18T07:49:08;12.10;99.90
1568;DHT22;777;47.156;8.326;2023-02-18T07:51:35;11.90;99.90
1568;DHT22;777;47.156;8.326;2023-02-18T07:54:06;12.00;99.90
1568;DHT22;777;47.156;8.326;2023-02-18T07:56:33;11.70;99.90
1568;DHT22;777;47.156;8.326;2023-02-18T07:59:00;11.70;99.90
1568;DHT22;777;47.156;8.326;2023-02-18T08:01:27;12.10;99.90
1568;DHT22;777;47.156;8.326;2023-02-18T08:03:54;12.70;99.90
1568;DHT22;777;47.156;8.326;2023-02-18T08:06:24;12.70;99.90
1568;DHT22;777;47.156;8.326;2023-02-18T08:08:52;13.20;99.90
1568;DHT22;777;47.156;8.326;2023-02-18T08:11:20;13.50;99.90
1568;DHT22;777;47.156;8.326;2023-02-18T08:13:47;13.80;99.90
1568;DHT22;777;47.156;8.326;2023-02-18T08:16:14;14.30;99.90
1568;DHT22;777;47.156;8.326;2023-02-18T08:18:42;15.00;99.90
1568;DHT22;777;47.156;8.326;2023-02-18T08:21:09;15.10;99.90
1568;DHT22;777;47.156;8.326;2023-02-18T08:23:36;15.20;99.90
1568;DHT22;777;47.156;8.326;2023-02-18T08:26:03;15.10;99.90
1568;DHT22;777;47.156;8.326;2023-02-18T08:28:42;15.30;99.90
1568;DHT22;777;47.156;8.326;2023-02-18T08:31:15;15.50;99.90
1568;DHT22;777;47.156;8.326;2023-02-18T08:33:42;15.50;99.90
1568;DHT22;777;47.156;8.326;2023-02-18T08:36:09;15.90;99.90
1568;DHT22;777;47.156;8.326;2023-02-18T08:38:36;16.10;99.90
1568;DHT22;777;47.156;8.326;2023-02-18T08:41:04;16.20;99.90
1568;DHT22;777;47.156;8.326;2023-02-18T08:43:32;16.00;99.90
1568;DHT22;777;47.156;8.326;2023-02-18T08:46:00;16.30;99.90
1568;DHT22;777;47.156;8.326;2023-02-18T08:48:27;16.40;99.90
1568;DHT22;777;47.156;8.326;2023-02-18T08:50:55;16.70;99.90
1568;DHT22;777;47.156;8.326;2023-02-18T08:53:22;17.30;99.90
1568;DHT22;777;47.156;8.326;2023-02-18T08:55:49;17.40;99.90
1568;DHT22;777;47.156;8.326;2023-02-18T08:58:16;17.80;99.90
1568;DHT22;777;47.156;8.326;2023-02-18T09:00:44;17.80;99.90
1568;DHT22;777;47.156;8.326;2023-02-18T09:03:13;17.70;99.90
1568;DHT22;777;47.156;8.326;2023-02-18T09:05:41;18.30;99.90
1568;DHT22;777;47.156;8.326;2023-02-18T09:08:08;18.80;99.90
1568;DHT22;777;47.156;8.326;2023-02-18T09:10:35;19.20;99.90
1568;DHT22;777;47.156;8.326;2023-02-18T09:13:01;18.90;99.90
1568;DHT22;777;47.156;8.326;2023-02-18T09:15:28;19.30;99.90
1568;DHT22;777;47.156;8.326;2023-02-18T09:17:56;19.80;99.90
1568;DHT22;777;47.156;8.326;2023-02-18T09:20:25;19.70;99.90
1568;DHT22;777;47.156;8.326;2023-02-18T09:22:52;19.40;99.90
1568;DHT22;777;47.156;8.326;2023-02-18T09:25:19;19.30;99.90
1568;DHT22;777;47.156;8.326;2023-02-18T09:27:46;19.40;99.90
1568;DHT22;777;47.156;8.326;2023-02-18T09:30:13;19.40;99.90
1568;DHT22;777;47.156;8.326;2023-02-18T09:32:40;19.40;99.90
1568;DHT22;777;47.156;8.326;2023-02-18T09:35:08;19.30;99.90
1568;DHT22;777;47.156;8.326;2023-02-18T09:37:36;18.70;99.90
1568;DHT22;777;47.156;8.326;2023-02-18T09:40:06;18.50;99.90
1568;DHT22;777;47.156;8.326;2023-02-18T09:42:34;18.60;99.90
1568;DHT22;777;47.156;8.326;2023-02-18T09:45:03;18.30;99.90
1568;DHT22;777;47.156;8.326;2023-02-18T09:47:34;18.10;99.90
1568;DHT22;777;47.156;8.326;2023-02-18T09:50:05;17.80;99.90
1568;DHT22;777;47.156;8.326;2023-02-18T09:52:36;17.50;99.90
1568;DHT22;777;47.156;8.326;2023-02-18T09:55:19;17.80;99.90
1568;DHT22;777;47.156;8.326;2023-02-18T09:57:49;18.60;99.90
1568;DHT22;777;47.156;8.326;2023-02-18T10:00:19;18.30;99.90
1568;DHT22;777;47.156;8.326;2023-02-18T10:02:53;18.60;99.90
1568;DHT22;777;47.156;8.326;2023-02-18T10:05:21;19.10;99.90
1568;DHT22;777;47.156;8.326;2023-02-18T10:07:53;19.20;99.90
1568;DHT22;777;47.156;8.326;2023-02-18T10:10:26;19.80;99.90
1568;DHT22;777;47.156;8.326;2023-02-18T10:12:57;19.70;99.90
1568;DHT22;777;47.156;8.326;2023-02-18T10:15:28;20.20;99.90
1568;DHT22;777;47.156;8.326;2023-02-18T10:17:56;20.30;99.90
1568;DHT22;777;47.156;8.326;2023-02-18T10:20:27;20.90;99.90
1568;DHT22;777;47.156;8.326;2023-02-18T10:22:59;21.10;99.90
1568;DHT22;777;47.156;8.326;2023-02-18T10:25:28;21.60;99.90
1568;DHT22;777;47.156;8.326;2023-02-18T10:27:57;22.10;99.90
1568;DHT22;777;47.156;8.326;2023-02-18T10:30:31;22.30;99.90
1568;DHT22;777;47.156;8.326;2023-02-18T10:33:09;22.30;99.90
1568;DHT22;777;47.156;8.326;2023-02-18T10:35:40;22.30;99.90
1568;DHT22;777;47.156;8.326;2023-02-18T10:38:19;21.50;99.90
1568;DHT22;777;47.156;8.326;2023-02-18T10:40:55;21.20;99.90
1568;DHT22;777;47.156;8.326;2023-02-18T10:43:29;21.00;99.90
1568;DHT22;777;47.156;8.326;2023-02-18T10:46:06;21.20;99.90
1568;DHT22;777;47.156;8.326;2023-02-18T10:49:08;20.70;99.90
1568;DHT22;777;47.156;8.326;2023-02-18T10:51:47;20.50;99.90
1568;DHT22;777;47.156;8.326;2023-02-18T10:54:17;20.40;99.90
1568;DHT22;777;47.156;8.326;2023-02-18T10:56:50;20.30;99.90
1568;DHT22;777;47.156;8.326;2023-02-18T10:59:20;20.50;99.90
1568;DHT22;777;47.156;8.326;2023-02-18T11:01:54;20.40;99.90
1568;DHT22;777;47.156;8.326;2023-02-18T11:04:24;20.90;99.90
1568;DHT22;777;47.156;8.326;2023-02-18T11:06:52;21.50;99.90
1568;DHT22;777;47.156;8.326;2023-02-18T11:09:40;21.90;99.90
1568;DHT22;777;47.156;8.326;2023-02-18T11:12:14;21.50;99.90
1568;DHT22;777;47.156;8.326;2023-02-18T11:14:44;21.30;99.90
1568;DHT22;777;47.156;8.326;2023-02-18T11:17:18;21.50;99.90
1568;DHT22;777;47.156;8.326;2023-02-18T11:19:51;21.50;99.90
1568;DHT22;777;47.156;8.326;2023-02-18T11:22:21;20.90;99.90
1568;DHT22;777;47.156;8.326;2023-02-18T11:24:54;20.60;99.90
1568;DHT22;777;47.156;8.326;2023-02-18T11:27:25;20.10;99.90
1568;DHT22;777;47.156;8.326;2023-02-18T11:29:56;20.00;99.90
1568;DHT22;777;47.156;8.326;2023-02-18T11:32:27;19.70;99.90
1568;DHT22;777;47.156;8.326;2023-02-18T11:34:54;19.80;99.90
1568;DHT22;777;47.156;8.326;2023-02-18T11:37:21;19.90;99.90
1568;DHT22;777;47.156;8.326;2023-02-18T11:39:51;19.60;99.90
1568;DHT22;777;47.156;8.326;2023-02-18T11:42:22;19.20;99.90
1568;DHT22;777;47.156;8.326;2023-02-18T11:44:52;19.30;99.90
1568;DHT22;777;47.156;8.326;2023-02-18T11:47:23;19.30;99.90
1568;DHT22;777;47.156;8.326;2023-02-18T11:50:14;19.20;99.90
1568;DHT22;777;47.156;8.326;2023-02-18T11:52:43;19.50;99.90
1568;DHT22;777;47.156;8.326;2023-02-18T11:55:15;20.20;99.90
1568;DHT22;777;47.156;8.326;2023-02-18T11:57:48;21.00;99.90
1568;DHT22;777;47.156;8.326;2023-02-18T12:00:22;21.40;99.90
1568;DHT22;777;47.156;8.326;2023-02-18T12:02:50;21.80;99.90
1568;DHT22;777;47.156;8.326;2023-02-18T12:05:21;21.90;99.90
1568;DHT22;777;47.156;8.326;2023-02-18T12:07:51;22.00;99.90
1568;DHT22;777;47.156;8.326;2023-02-18T12:10:22;21.80;99.90
1568;DHT22;777;47.156;8.326;2023-02-18T12:12:59;22.00;99.90
1568;DHT22;777;47.156;8.326;2023-02-18T12:15:36;22.20;99.90
1568;DHT22;777;47.156;8.326;2023-02-18T12:18:26;22.30;99.90
1568;DHT22;777;47.156;8.326;2023-02-18T12:21:09;22.20;99.90
1568;DHT22;777;47.156;8.326;2023-02-18T12:23:46;21.90;99.90
1568;DHT22;777;47.156;8.326;2023-02-18T12:26:23;21.70;99.90
1568;DHT22;777;47.156;8.326;2023-02-18T12:29:02;22.10;99.90
1568;DHT22;777;47.156;8.326;2023-02-18T12:31:56;22.30;99.90
1568;DHT22;777;47.156;8.326;2023-02-18T12:34:39;22.20;99.90
1568;DHT22;777;47.156;8.326;2023-02-18T12:40:20;23.10;99.90
1568;DHT22;777;47.156;8.326;2023-02-18T12:42:58;23.20;98.70
1568;DHT22;777;47.156;8.326;2023-02-18T12:45:39;22.60;99.70
1568;DHT22;777;47.156;8.326;2023-02-18T12:48:30;23.00;99.50
1568;DHT22;777;47.156;8.326;2023-02-18T12:51:10;23.10;99.30
1568;DHT22;777;47.156;8.326;2023-02-18T12:53:52;23.80;99.30
1568;DHT22;777;47.156;8.326;2023-02-18T12:56:52;23.50;98.30
1568;DHT22;777;47.156;8.326;2023-02-18T12:59:46;24.10;98.20
1568;DHT22;777;47.156;8.326;2023-02-18T13:02:36;24.50;96.80
1568;DHT22;777;47.156;8.326;2023-02-18T13:05:12;25.10;96.60
1568;DHT22;777;47.156;8.326;2023-02-18T13:07:55;25.70;95.00
1568;DHT22;777;47.156;8.326;2023-02-18T13:10:46;25.10;95.00
1568;DHT22;777;47.156;8.326;2023-02-18T13:13:19;25.00;95.20
1568;DHT22;777;47.156;8.326;2023-02-18T13:15:49;24.20;94.40
1568;DHT22;777;47.156;8.326;2023-02-18T13:18:21;24.90;95.30
1568;DHT22;777;47.156;8.326;2023-02-18T13:20:52;25.60;94.10
1568;DHT22;777;47.156;8.326;2023-02-18T13:23:22;26.10;93.60
1568;DHT22;777;47.156;8.326;2023-02-18T13:25:54;26.80;92.90
1568;DHT22;777;47.156;8.326;2023-02-18T13:28:25;27.00;92.20
1568;DHT22;777;47.156;8.326;2023-02-18T13:31:03;27.00;92.00
1568;DHT22;777;47.156;8.326;2023-02-18T13:33:38;27.50;91.10
1568;DHT22;777;47.156;8.326;2023-02-18T13:36:16;27.20;90.20
1568;DHT22;777;47.156;8.326;2023-02-18T13:38:54;27.30;90.00
1568;DHT22;777;47.156;8.326;2023-02-18T13:41:25;27.50;89.40
1568;DHT22;777;47.156;8.326;2023-02-18T13:43:52;27.90;90.10
1568;DHT22;777;47.156;8.326;2023-02-18T13:46:21;28.00;89.00
1568;DHT22;777;47.156;8.326;2023-02-18T13:48:51;28.10;88.60
1568;DHT22;777;47.156;8.326;2023-02-18T13:51:28;27.50;85.50
1568;DHT22;777;47.156;8.326;2023-02-18T13:54:01;26.90;87.90
1568;DHT22;777;47.156;8.326;2023-02-18T13:56:31;27.00;89.00
1568;DHT22;777;47.156;8.326;2023-02-18T13:59:01;27.10;87.30
1568;DHT22;777;47.156;8.326;2023-02-18T14:01:39;26.90;87.00
1568;DHT22;777;47.156;8.326;2023-02-18T14:07:24;27.10;88.40
1568;DHT22;777;47.156;8.326;2023-02-18T14:09:52;26.80;89.10
1568;DHT22;777;47.156;8.326;2023-02-18T14:12:36;26.90;88.60
1568;DHT22;777;47.156;8.326;2023-02-18T14:18:24;26.00;90.00
1568;DHT22;777;47.156;8.326;2023-02-18T14:20:51;26.10;90.40
1568;DHT22;777;47.156;8.326;2023-02-18T14:23:42;26.20;90.20
1568;DHT22;777;47.156;8.326;2023-02-18T14:26:20;26.10;90.10
1568;DHT22;777;47.156;8.326;2023-02-18T14:28:54;26.30;89.70
1568;DHT22;777;47.156;8.326;2023-02-18T14:31:46;26.50;88.70
1568;DHT22;777;47.156;8.326;2023-02-18T14:37:43;26.50;88.80
1568;DHT22;777;47.156;8.326;2023-02-18T14:40:37;26.90;88.80
1568;DHT22;777;47.156;8.326;2023-02-18T14:43:12;26.80;87.80
1568;DHT22;777;47.156;8.326;2023-02-18T14:46:02;25.30;88.20
1568;DHT22;777;47.156;8.326;2023-02-18T14:48:44;25.40;89.90
1568;DHT22;777;47.156;8.326;2023-02-18T14:51:19;25.90;89.60
1568;DHT22;777;47.156;8.326;2023-02-18T14:53:47;25.80;89.50
1568;DHT22;777;47.156;8.326;2023-02-18T14:56:20;25.40;90.10
1568;DHT22;777;47.156;8.326;2023-02-18T14:58:51;25.30;90.00
1568;DHT22;777;47.156;8.326;2023-02-18T15:01:20;25.40;90.00
1568;DHT22;777;47.156;8.326;2023-02-18T15:03:48;26.00;89.90
1568;DHT22;777;47.156;8.326;2023-02-18T15:06:24;26.30;88.80
1568;DHT22;777;47.156;8.326;2023-02-18T15:08:52;26.30;88.70
1568;DHT22;777;47.156;8.326;2023-02-18T15:11:22;25.80;89.20
1568;DHT22;777;47.156;8.326;2023-02-18T15:13:51;25.20;90.20
1568;DHT22;777;47.156;8.326;2023-02-18T15:16:25;24.60;90.70
1568;DHT22;777;47.156;8.326;2023-02-18T15:18:56;24.10;91.20
1568;DHT22;777;47.156;8.326;2023-02-18T15:21:28;23.40;92.10
1568;DHT22;777;47.156;8.326;2023-02-18T15:23:58;23.00;92.60
1568;DHT22;777;47.156;8.326;2023-02-18T15:26:29;22.50;92.70
1568;DHT22;777;47.156;8.326;2023-02-18T15:28:59;22.30;93.70
1568;DHT22;777;47.156;8.326;2023-02-18T15:31:33;22.10;93.70
1568;DHT22;777;47.156;8.326;2023-02-18T15:34:01;21.70;94.20
1568;DHT22;777;47.156;8.326;2023-02-18T15:36:28;21.00;94.90
1568;DHT22;777;47.156;8.326;2023-02-18T15:38:57;20.40;96.00
1568;DHT22;777;47.156;8.326;2023-02-18T15:41:24;19.80;96.80
1568;DHT22;777;47.156;8.326;2023-02-18T15:43:54;19.20;98.10
1568;DHT22;777;47.156;8.326;2023-02-18T15:46:22;18.60;99.90
1568;DHT22;777;47.156;8.326;2023-02-18T15:48:52;18.40;99.90
1568;DHT22;777;47.156;8.326;2023-02-18T15:51:24;17.80;99.90
1568;DHT22;777;47.156;8.326;2023-02-18T15:53:54;16.70;99.90
1568;DHT22;777;47.156;8.326;2023-02-18T15:56:28;16.50;99.90
1568;DHT22;777;47.156;8.326;2023-02-18T15:59:08;16.20;99.90
1568;DHT22;777;47.156;8.326;2023-02-18T16:01:35;15.50;99.90
1568;DHT22;777;47.156;8.326;2023-02-18T16:04:05;15.40;99.90
1568;DHT22;777;47.156;8.326;2023-02-18T16:06:36;15.60;99.90
1568;DHT22;777;47.156;8.326;2023-02-18T16:09:11;15.50;99.90
1568;DHT22;777;47.156;8.326;2023-02-18T16:11:41;15.50;99.90
1568;DHT22;777;47.156;8.326;2023-02-18T16:14:23;15.50;99.90
1568;DHT22;777;47.156;8.326;2023-02-18T16:17:04;15.00;99.90
1568;DHT22;777;47.156;8.326;2023-02-18T16:19:32;14.50;99.90
1568;DHT22;777;47.156;8.326;2023-02-18T16:22:03;14.40;99.90
1568;DHT22;777;47.156;8.326;2023-02-18T16:24:39;14.30;99.90
1568;DHT22;777;47.156;8.326;2023-02-18T16:27:14;14.10;99.90
1568;DHT22;777;47.156;8.326;2023-02-18T16:29:43;13.90;99.90
1568;DHT22;777;47.156;8.326;2023-02-18T16:32:10;13.60;99.90
1568;DHT22;777;47.156;8.326;2023-02-18T16:34:37;13.30;99.90
1568;DHT22;777;47.156;8.326;2023-02-18T16:37:04;13.20;99.90
1568;DHT22;777;47.156;8.326;2023-02-18T16:39:49;13.30;99.90
1568;DHT22;777;47.156;8.326;2023-02-18T16:42:19;13.40;99.90
1568;DHT22;777;47.156;8.326;2023-02-18T16:44:48;13.40;99.90
1568;DHT22;777;47.156;8.326;2023-02-18T16:47:20;13.30;99.90
1568;DHT22;777;47.156;8.326;2023-02-18T16:49:48;13.20;99.90
1568;DHT22;777;47.156;8.326;2023-02-18T16:52:16;13.00;99.90
1568;DHT22;777;47.156;8.326;2023-02-18T16:54:44;12.80;99.90
1568;DHT22;777;47.156;8.326;2023-02-18T16:57:12;12.70;99.90
1568;DHT22;777;47.156;8.326;2023-02-18T16:59:39;12.60;99.90
1568;DHT22;777;47.156;8.326;2023-02-18T17:02:16;12.50;99.90
1568;DHT22;777;47.156;8.326;2023-02-18T17:04:43;12.40;99.90
1568;DHT22;777;47.156;8.326;2023-02-18T17:07:10;12.30;99.90